Avon Heights, Pennsylvania
Current Conditions -  °F | °C
As of 11:26 PM on Thursday 27 Nov 2014 (Local Time) from KMUI Reporting Station
Light Snow Light Snow  
Wind Chill: 25°   Ceiling: 9000
Heat Index: 34°   Visibility: 10mi
Dew Point: 28°   Wind: 13mph
Humidity: 81%   Direction: 280°W
Pressure: 30.11"   Gusts: 17mph
Location:  40.2957°N, 76.4189°W
Report Text: KMUI 280426Z AUTO 28011G15KT 10SM -SN SCT023 BKN090 01/M02 A3011 RMK AO2 $
Loading
Personal Weather Stations






























Interactive Weather Map New forecast layout! Learn more

10-Day Weather Forecast

Advertisements
Track Severe Weather on mobile